createdAt,value
2023-03-13T00:01:19.290Z,37.85
2023-03-13T00:03:46.036Z,30.67
2023-03-13T00:06:13.052Z,23.00
2023-03-13T00:08:39.657Z,24.42
2023-03-13T00:11:08.416Z,27.40
2023-03-13T00:13:36.218Z,32.33
2023-03-13T00:16:08.455Z,31.83
2023-03-13T00:21:04.363Z,21.50
2023-03-13T00:23:32.515Z,24.52
2023-03-13T00:26:01.539Z,12.73
2023-03-13T00:28:32.384Z,14.80
2023-03-13T00:31:14.962Z,12.18
2023-03-13T00:33:50.041Z,17.90
2023-03-13T00:36:20.050Z,12.18
2023-03-13T00:38:47.114Z,15.10
2023-03-13T00:41:16.592Z,20.85
2023-03-13T00:43:44.502Z,19.08
2023-03-13T00:46:12.775Z,13.60
2023-03-13T00:48:39.421Z,17.98
2023-03-13T00:51:07.568Z,11.32
2023-03-13T00:53:34.578Z,25.60
2023-03-13T00:56:04.141Z,41.42
2023-03-13T00:58:33.228Z,23.77
2023-03-13T01:01:13.736Z,19.70
2023-03-13T01:03:42.826Z,28.98
2023-03-13T01:06:13.339Z,24.25
2023-03-13T01:08:40.438Z,24.75
2023-03-13T01:11:13.020Z,26.42
2023-03-13T01:13:40.423Z,32.33
2023-03-13T01:16:11.452Z,25.50
2023-03-13T01:18:40.366Z,21.00
2023-03-13T01:21:07.448Z,14.65
2023-03-13T01:23:36.984Z,13.82
2023-03-13T01:26:06.990Z,12.93
2023-03-13T01:28:34.618Z,74.35
2023-03-13T01:31:01.641Z,63.92
2023-03-13T01:33:29.758Z,68.03
2023-03-13T01:36:01.974Z,109.45
2023-03-13T01:40:55.365Z,85.63
2023-03-13T01:43:31.912Z,71.05
2023-03-13T01:46:16.459Z,55.00
2023-03-13T01:49:29.220Z,63.00
2023-03-13T01:52:06.848Z,47.50
2023-03-13T01:54:47.639Z,67.50
2023-03-13T01:57:25.010Z,62.15
2023-03-13T02:00:16.980Z,30.90
2023-03-13T02:02:48.502Z,18.00
2023-03-13T02:05:16.987Z,19.10
2023-03-13T02:07:57.017Z,21.25
2023-03-13T02:10:25.868Z,22.83
2023-03-13T02:12:56.530Z,23.83
2023-03-13T02:15:26.238Z,36.17
2023-03-13T02:17:54.687Z,31.38
2023-03-13T02:20:22.393Z,16.23
2023-03-13T02:23:00.849Z,27.23
2023-03-13T02:25:32.228Z,28.00
2023-03-13T02:27:59.194Z,33.90
2023-03-13T02:30:30.304Z,53.55
2023-03-13T02:32:57.501Z,78.63
2023-03-13T02:35:24.286Z,115.13
2023-03-13T02:37:57.023Z,73.95
2023-03-13T02:40:28.897Z,83.65
2023-03-13T02:42:59.023Z,104.10
2023-03-13T02:45:26.025Z,177.93
2023-03-13T02:47:52.670Z,92.05
2023-03-13T02:50:20.687Z,58.70
2023-03-13T02:52:53.522Z,72.45
2023-03-13T02:55:26.621Z,65.45
2023-03-13T02:57:53.392Z,42.72
2023-03-13T03:00:20.721Z,39.45
2023-03-13T03:02:47.343Z,62.50
2023-03-13T03:05:14.529Z,25.85
2023-03-13T03:07:41.162Z,18.58
2023-03-13T03:10:08.430Z,56.92
2023-03-13T03:12:35.759Z,15.75
2023-03-13T03:15:04.770Z,11.18
2023-03-13T03:17:32.492Z,40.30
2023-03-13T03:19:59.193Z,28.10
2023-03-13T03:22:25.930Z,35.85
2023-03-13T03:24:52.505Z,34.92
2023-03-13T03:27:19.354Z,24.40
2023-03-13T03:29:51.808Z,18.45
2023-03-13T03:32:18.461Z,16.10
2023-03-13T03:34:45.055Z,23.70
2023-03-13T03:37:11.700Z,20.98
2023-03-13T03:39:39.346Z,23.52
2023-03-13T03:42:06.559Z,43.00
2023-03-13T03:44:33.390Z,61.58
2023-03-13T03:47:00.881Z,49.00
2023-03-13T03:49:31.882Z,54.33
2023-03-13T03:51:58.579Z,27.15
2023-03-13T03:54:33.083Z,14.18
2023-03-13T03:57:00.359Z,21.45
2023-03-13T03:59:27.109Z,18.88
2023-03-13T04:01:59.266Z,26.75
2023-03-13T04:04:28.509Z,46.47
2023-03-13T04:07:01.498Z,30.38
2023-03-13T04:09:31.917Z,37.25
2023-03-13T04:11:59.821Z,31.77
2023-03-13T04:14:26.976Z,35.67
2023-03-13T04:16:54.485Z,31.05
2023-03-13T04:19:21.142Z,14.52
2023-03-13T04:21:47.772Z,10.57
2023-03-13T04:24:17.526Z,8.15
2023-03-13T04:26:45.143Z,12.07
2023-03-13T04:29:12.123Z,17.67
2023-03-13T04:31:48.274Z,25.08
2023-03-13T04:34:31.723Z,20.20
2023-03-13T04:37:04.577Z,20.63
2023-03-13T04:39:41.737Z,18.70
2023-03-13T04:42:34.606Z,21.08
2023-03-13T04:45:24.333Z,21.58
2023-03-13T04:48:13.168Z,11.90
2023-03-13T04:50:58.228Z,31.80
2023-03-13T04:53:30.059Z,22.25
2023-03-13T04:56:42.354Z,17.98
2023-03-13T04:59:28.951Z,36.45
2023-03-13T05:02:18.736Z,31.00
2023-03-13T05:05:01.156Z,46.83
2023-03-13T05:07:46.524Z,37.67
2023-03-13T05:10:32.079Z,38.33
2023-03-13T05:13:16.153Z,41.55
2023-03-13T05:15:53.145Z,34.08
2023-03-13T05:18:49.501Z,33.05
2023-03-13T05:21:34.576Z,111.00
2023-03-13T05:24:01.292Z,85.50
2023-03-13T05:26:44.732Z,55.17
2023-03-13T05:29:43.715Z,53.40
2023-03-13T05:32:16.866Z,40.38
2023-03-13T05:34:46.882Z,25.67
2023-03-13T05:39:55.799Z,26.15
2023-03-13T05:42:46.215Z,32.25
2023-03-13T05:45:15.782Z,52.60
2023-03-13T05:47:45.153Z,48.65
2023-03-13T05:50:31.852Z,32.85
2023-03-13T05:53:18.738Z,31.80
2023-03-13T05:55:57.018Z,38.75
2023-03-13T05:58:42.354Z,31.23
2023-03-13T06:01:14.993Z,28.27
2023-03-13T06:03:57.611Z,27.42
2023-03-13T06:06:25.391Z,27.73
2023-03-13T06:08:54.982Z,22.38
2023-03-13T06:11:23.973Z,22.38
2023-03-13T06:13:54.969Z,35.42
2023-03-13T06:16:28.212Z,29.60
2023-03-13T06:19:11.844Z,29.70
2023-03-13T06:21:39.174Z,19.60
2023-03-13T06:24:06.063Z,26.35
2023-03-13T06:26:32.796Z,23.35
2023-03-13T06:28:59.342Z,16.63
2023-03-13T06:31:26.162Z,13.10
2023-03-13T06:33:54.477Z,15.25
2023-03-13T06:36:22.692Z,19.45
2023-03-13T06:38:49.367Z,13.07
2023-03-13T06:41:16.445Z,15.32
2023-03-13T06:43:43.569Z,15.13
2023-03-13T06:46:17.673Z,11.32
2023-03-13T06:48:44.820Z,14.02
2023-03-13T06:51:12.748Z,19.15
2023-03-13T06:53:39.788Z,20.80
2023-03-13T06:56:07.491Z,27.25
2023-03-13T06:58:34.486Z,24.52
2023-03-13T07:01:08.048Z,23.42
2023-03-13T07:03:36.196Z,18.65
2023-03-13T07:06:03.733Z,20.80
2023-03-13T07:08:30.703Z,22.48
2023-03-13T07:11:02.874Z,17.35
2023-03-13T07:16:00.403Z,21.70
2023-03-13T07:20:10.619Z,18.38
2023-03-13T07:22:38.065Z,21.55
2023-03-13T07:25:05.718Z,19.00
2023-03-13T07:27:33.142Z,24.63
2023-03-13T07:29:59.809Z,24.17
2023-03-13T07:32:46.445Z,15.30
2023-03-13T07:35:13.207Z,19.08
2023-03-13T07:37:39.748Z,16.25
2023-03-13T07:40:06.943Z,14.07
2023-03-13T07:42:33.811Z,17.42
2023-03-13T07:45:00.846Z,9.88
2023-03-13T07:47:30.208Z,8.38
2023-03-13T07:49:56.913Z,9.40
2023-03-13T07:52:23.556Z,9.05
2023-03-13T07:54:50.250Z,13.88
2023-03-13T07:57:17.660Z,13.73
2023-03-13T07:59:44.651Z,13.65
2023-03-13T08:02:13.755Z,12.35
2023-03-13T08:04:40.595Z,13.73
2023-03-13T08:07:11.077Z,10.63
2023-03-13T08:09:37.906Z,6.88
2023-03-13T08:12:06.468Z,10.43
2023-03-13T08:14:33.092Z,11.00
2023-03-13T08:16:59.838Z,13.55
2023-03-13T08:19:26.570Z,12.02
2023-03-13T08:21:53.159Z,24.88
2023-03-13T08:24:20.017Z,35.97
2023-03-13T08:26:46.800Z,101.18
2023-03-13T08:29:14.822Z,61.92
2023-03-13T08:31:47.929Z,65.57
2023-03-13T08:34:16.231Z,49.60
2023-03-13T08:36:43.125Z,20.33
2023-03-13T08:39:15.493Z,112.10
2023-03-13T08:41:42.924Z,150.13
2023-03-13T08:44:15.912Z,40.35
2023-03-13T08:46:44.039Z,28.85
2023-03-13T08:49:12.152Z,15.38
2023-03-13T08:53:57.932Z,138.88
2023-03-13T08:56:30.297Z,23.15
2023-03-13T08:58:59.901Z,32.08
2023-03-13T09:01:29.189Z,28.42
2023-03-13T09:03:57.284Z,98.95
2023-03-13T09:06:24.349Z,15.60
2023-03-13T09:08:51.083Z,11.40
2023-03-13T09:11:21.204Z,22.42
2023-03-13T09:13:50.614Z,8.80
2023-03-13T09:16:25.487Z,13.10
2023-03-13T09:18:53.581Z,11.35
2023-03-13T09:21:26.295Z,13.45
2023-03-13T09:23:53.234Z,24.48
2023-03-13T09:26:23.007Z,9.75
2023-03-13T09:28:51.652Z,11.10
2023-03-13T09:31:20.132Z,18.00
2023-03-13T09:33:48.696Z,22.60
2023-03-13T09:36:15.824Z,11.73
2023-03-13T09:38:42.766Z,23.73
2023-03-13T09:41:18.409Z,8.52
2023-03-13T09:43:59.782Z,24.40
2023-03-13T09:46:48.697Z,10.75
2023-03-13T09:49:29.017Z,14.38
2023-03-13T09:52:17.393Z,15.05
2023-03-13T09:54:51.050Z,11.02
2023-03-13T09:57:36.039Z,9.05
2023-03-13T10:00:12.890Z,10.40
2023-03-13T10:02:44.185Z,19.10
2023-03-13T10:05:20.714Z,12.50
2023-03-13T10:07:47.937Z,17.80
2023-03-13T10:10:18.030Z,26.17
2023-03-13T10:12:52.186Z,9.93
2023-03-13T10:15:34.293Z,15.65
2023-03-13T10:18:13.287Z,7.10
2023-03-13T10:20:40.853Z,13.02
2023-03-13T10:23:16.550Z,10.32
2023-03-13T10:25:43.262Z,12.43
2023-03-13T10:28:13.310Z,11.18
2023-03-13T10:30:52.171Z,6.75
2023-03-13T10:33:27.330Z,7.97
2023-03-13T10:36:04.030Z,11.95
2023-03-13T10:38:45.729Z,16.50
2023-03-13T10:41:22.787Z,7.45
2023-03-13T10:43:54.921Z,8.10
2023-03-13T10:46:27.185Z,10.05
2023-03-13T10:48:55.943Z,7.38
2023-03-13T10:51:25.232Z,9.18
2023-03-13T10:53:52.265Z,9.95
2023-03-13T10:56:31.559Z,13.43
2023-03-13T10:58:58.304Z,13.35
2023-03-13T11:01:33.644Z,8.52
2023-03-13T11:04:29.994Z,13.88
2023-03-13T11:07:14.491Z,5.30
2023-03-13T11:09:41.107Z,7.35
2023-03-13T11:12:17.391Z,9.05
2023-03-13T11:14:45.250Z,8.13
2023-03-13T11:17:38.747Z,12.88
2023-03-13T11:20:36.360Z,10.23
2023-03-13T11:23:19.701Z,8.43
2023-03-13T11:25:58.750Z,6.55
2023-03-13T11:28:49.766Z,11.98
2023-03-13T11:31:40.642Z,9.77
2023-03-13T11:34:26.554Z,5.00
2023-03-13T11:37:12.817Z,7.97
2023-03-13T11:39:58.379Z,7.40
2023-03-13T11:43:23.971Z,8.77
2023-03-13T11:46:12.613Z,5.25
2023-03-13T11:49:10.023Z,7.13
2023-03-13T11:52:11.215Z,6.47
2023-03-13T11:54:56.368Z,4.90
2023-03-13T11:57:35.254Z,5.40
2023-03-13T12:00:21.636Z,4.40
2023-03-13T12:03:05.705Z,6.10
2023-03-13T12:05:55.348Z,3.38
2023-03-13T12:08:34.574Z,3.42
2023-03-13T12:11:13.490Z,8.30
2023-03-13T12:14:15.863Z,3.60
2023-03-13T12:16:49.687Z,4.20
2023-03-13T12:19:22.682Z,5.13
2023-03-13T12:21:57.156Z,5.03
2023-03-13T12:24:46.096Z,7.30
2023-03-13T12:27:24.253Z,4.45
2023-03-13T12:30:00.153Z,4.03
2023-03-13T12:32:37.345Z,3.75
2023-03-13T12:35:28.784Z,3.97
2023-03-13T12:38:10.294Z,3.77
2023-03-13T12:40:51.887Z,3.97
2023-03-13T12:43:39.223Z,2.33
2023-03-13T12:46:43.086Z,4.18
2023-03-13T12:49:34.497Z,3.72
2023-03-13T12:52:10.244Z,4.87
2023-03-13T12:55:21.427Z,11.80
2023-03-13T12:57:59.887Z,5.05
2023-03-13T13:00:30.289Z,5.15
2023-03-13T13:03:07.823Z,5.57
2023-03-13T13:05:34.570Z,19.23
2023-03-13T13:08:01.095Z,9.75
2023-03-13T13:10:28.891Z,15.77
2023-03-13T13:13:13.757Z,9.80
2023-03-13T13:16:01.332Z,19.95
2023-03-13T13:18:29.006Z,6.38
2023-03-13T13:21:20.077Z,9.57
2023-03-13T13:23:48.164Z,14.23
2023-03-13T13:26:37.400Z,4.32
2023-03-13T13:29:13.087Z,6.80
2023-03-13T13:31:47.986Z,6.30
2023-03-13T13:34:34.523Z,7.63
2023-03-13T13:37:03.854Z,9.40
2023-03-13T13:39:40.436Z,5.82
2023-03-13T13:42:41.911Z,9.68
2023-03-13T13:45:14.595Z,4.93
2023-03-13T13:47:49.445Z,5.63
2023-03-13T13:50:27.048Z,5.30
2023-03-13T13:53:45.999Z,7.55
2023-03-13T13:56:28.527Z,16.52
2023-03-13T13:59:01.925Z,11.18
2023-03-13T14:01:29.340Z,18.38
2023-03-13T14:04:10.627Z,10.55
2023-03-13T14:06:39.021Z,11.13
2023-03-13T14:09:33.458Z,11.18
2023-03-13T14:12:00.237Z,10.68
2023-03-13T14:14:26.790Z,9.85
2023-03-13T14:16:58.438Z,10.80
2023-03-13T14:19:38.827Z,15.48
2023-03-13T14:22:08.287Z,13.85
2023-03-13T14:24:35.689Z,9.07
2023-03-13T14:27:14.507Z,23.63
2023-03-13T14:29:41.176Z,16.48
2023-03-13T14:32:08.062Z,10.20
2023-03-13T14:34:34.739Z,20.80
2023-03-13T14:37:17.411Z,8.20
2023-03-13T14:39:46.426Z,7.25
2023-03-13T14:42:15.971Z,7.03
2023-03-13T14:44:46.799Z,6.20
2023-03-13T14:47:26.917Z,4.97
2023-03-13T14:50:00.547Z,4.45
2023-03-13T14:52:32.597Z,5.43
2023-03-13T14:57:32.351Z,5.82
2023-03-13T15:00:30.735Z,5.35
2023-03-13T15:03:25.791Z,4.70
2023-03-13T15:06:16.985Z,5.20
2023-03-13T15:08:46.310Z,4.20
2023-03-13T15:11:34.637Z,11.68
2023-03-13T15:14:01.920Z,27.88
2023-03-13T15:16:28.864Z,36.50
2023-03-13T15:18:56.793Z,8.15
2023-03-13T15:21:33.173Z,8.88
2023-03-13T15:24:02.408Z,30.77
2023-03-13T15:26:29.667Z,30.63
2023-03-13T15:28:56.335Z,26.00
2023-03-13T15:31:27.915Z,9.88
2023-03-13T15:33:57.820Z,15.80
2023-03-13T15:36:26.920Z,35.67
2023-03-13T15:38:54.049Z,76.03
2023-03-13T15:41:22.476Z,30.10
2023-03-13T15:43:55.253Z,23.38
2023-03-13T15:46:22.749Z,28.58
2023-03-13T15:48:51.409Z,28.65
2023-03-13T15:51:18.361Z,30.02
2023-03-13T15:53:46.153Z,21.17
2023-03-13T15:58:32.422Z,10.40
2023-03-13T16:00:59.062Z,13.60
2023-03-13T16:03:30.064Z,14.98
2023-03-13T16:05:57.466Z,6.65
2023-03-13T16:08:37.054Z,45.63
2023-03-13T16:11:04.676Z,21.45
2023-03-13T16:13:31.408Z,13.23
2023-03-13T16:15:58.555Z,60.70
2023-03-13T16:18:25.566Z,34.70
2023-03-13T16:20:53.786Z,8.55
2023-03-13T16:23:20.377Z,17.02
2023-03-13T16:25:48.620Z,22.05
2023-03-13T16:28:16.192Z,11.68
2023-03-13T16:30:47.824Z,30.88
2023-03-13T16:33:14.715Z,17.95
2023-03-13T16:35:41.319Z,13.15
2023-03-13T16:38:11.238Z,8.88
2023-03-13T16:40:37.844Z,62.75
2023-03-13T16:43:04.368Z,12.45
2023-03-13T16:45:30.976Z,24.25
2023-03-13T16:47:57.641Z,19.58
2023-03-13T16:50:31.383Z,7.85
2023-03-13T16:52:58.009Z,13.10
2023-03-13T16:55:28.298Z,11.68
2023-03-13T16:57:58.683Z,23.23
2023-03-13T17:00:27.706Z,8.85
2023-03-13T17:02:54.936Z,19.48
2023-03-13T17:05:21.608Z,11.65
2023-03-13T17:07:50.716Z,13.70
2023-03-13T17:10:27.992Z,54.60
2023-03-13T17:12:54.733Z,29.02
2023-03-13T17:15:21.706Z,43.63
2023-03-13T17:20:16.620Z,50.08
2023-03-13T17:22:43.674Z,53.50
2023-03-13T17:25:13.269Z,139.00
2023-03-13T17:27:40.934Z,334.58
2023-03-13T17:30:17.010Z,139.15
2023-03-13T17:32:43.695Z,201.73
2023-03-13T17:35:10.720Z,293.13
2023-03-13T17:37:37.520Z,123.55
2023-03-13T17:40:21.545Z,112.28
2023-03-13T17:42:48.608Z,54.13
2023-03-13T17:45:15.703Z,165.68
2023-03-13T17:47:42.566Z,738.95
2023-03-13T17:50:21.827Z,902.35
2023-03-13T17:52:49.060Z,713.03
2023-03-13T17:55:15.896Z,681.25
2023-03-13T17:57:43.848Z,539.08
2023-03-13T18:00:28.870Z,553.83
2023-03-13T18:02:56.120Z,256.83
2023-03-13T18:05:22.771Z,721.58
2023-03-13T18:07:49.861Z,230.05
2023-03-13T18:10:23.369Z,63.38
2023-03-13T18:12:51.493Z,28.20
2023-03-13T18:15:19.399Z,207.45
2023-03-13T18:17:46.386Z,31.52
2023-03-13T18:20:26.158Z,15.98
2023-03-13T18:22:52.757Z,20.83
2023-03-13T18:25:19.575Z,657.13
2023-03-13T18:27:46.408Z,1840.20
2023-03-13T18:30:21.542Z,295.15
2023-03-13T18:32:49.032Z,255.43
2023-03-13T18:35:16.180Z,102.72
2023-03-13T18:37:45.075Z,608.20
2023-03-13T18:40:15.057Z,531.80
2023-03-13T18:42:41.670Z,323.70
2023-03-13T18:45:13.615Z,192.88
2023-03-13T18:47:40.191Z,131.93
2023-03-13T18:50:18.871Z,159.70
2023-03-13T18:52:45.623Z,83.22
2023-03-13T18:55:12.154Z,60.55
2023-03-13T18:57:38.768Z,29.95
2023-03-13T19:00:24.857Z,29.88
2023-03-13T19:02:51.720Z,35.67
2023-03-13T19:05:19.819Z,54.58
2023-03-13T19:07:51.086Z,78.32
2023-03-13T19:10:32.240Z,65.87
2023-03-13T19:12:59.012Z,69.63
2023-03-13T19:15:30.042Z,44.38
2023-03-13T19:18:01.841Z,46.40
2023-03-13T19:20:30.095Z,57.45
2023-03-13T19:23:00.375Z,82.07
2023-03-13T19:25:29.997Z,59.78
2023-03-13T19:27:58.960Z,68.78
2023-03-13T19:30:27.355Z,23.67
2023-03-13T19:32:54.319Z,24.77
2023-03-13T19:35:22.041Z,16.20
2023-03-13T19:37:49.503Z,60.22
2023-03-13T19:40:30.261Z,55.28
2023-03-13T19:42:57.179Z,90.65
2023-03-13T19:45:23.768Z,71.07
2023-03-13T19:47:53.179Z,56.20
2023-03-13T19:50:28.926Z,50.88
2023-03-13T19:52:57.869Z,48.30
2023-03-13T19:55:24.621Z,56.55
2023-03-13T19:57:52.703Z,73.07
2023-03-13T20:00:31.046Z,53.00
2023-03-13T20:02:57.885Z,41.67
2023-03-13T20:05:30.118Z,44.97
2023-03-13T20:07:59.145Z,54.20
2023-03-13T20:10:25.840Z,53.67
2023-03-13T20:12:53.622Z,51.33
2023-03-13T20:15:20.397Z,77.85
2023-03-13T20:17:47.000Z,29.80
2023-03-13T20:20:13.990Z,21.13
2023-03-13T20:22:42.424Z,13.48
2023-03-13T20:25:09.682Z,11.85
2023-03-13T20:27:37.355Z,15.45
2023-03-13T20:30:07.602Z,52.95
2023-03-13T20:32:34.532Z,23.40
2023-03-13T20:35:01.168Z,22.10
2023-03-13T20:37:27.871Z,28.58
2023-03-13T20:39:54.394Z,34.92
2023-03-13T20:42:22.624Z,82.55
2023-03-13T20:44:52.080Z,17.55
2023-03-13T20:47:18.699Z,21.50
2023-03-13T20:49:45.316Z,45.78
2023-03-13T20:52:11.943Z,120.45
2023-03-13T20:54:38.848Z,96.28
2023-03-13T20:57:05.672Z,182.82
2023-03-13T20:59:32.301Z,210.85
2023-03-13T21:01:59.645Z,250.73
2023-03-13T21:04:28.978Z,242.65
2023-03-13T21:06:57.760Z,188.02
2023-03-13T21:09:29.985Z,146.48
2023-03-13T21:11:56.643Z,194.73
2023-03-13T21:14:23.163Z,145.38
2023-03-13T21:16:49.733Z,135.35
2023-03-13T21:19:16.382Z,109.65
2023-03-13T21:21:43.030Z,68.30
2023-03-13T21:24:10.551Z,40.30
2023-03-13T21:26:37.695Z,38.80
2023-03-13T21:29:04.242Z,29.42
2023-03-13T21:31:32.253Z,130.38
2023-03-13T21:33:59.306Z,113.75
2023-03-13T21:36:26.117Z,29.00
2023-03-13T21:38:52.659Z,29.77
2023-03-13T21:41:21.636Z,40.08
2023-03-13T21:43:48.565Z,61.28
2023-03-13T21:46:18.190Z,68.90
2023-03-13T21:53:44.468Z,74.90
2023-03-13T21:56:15.278Z,111.10
2023-03-13T21:58:42.707Z,104.88
2023-03-13T22:01:09.299Z,101.45
2023-03-13T22:03:36.117Z,230.50
2023-03-13T22:06:02.765Z,142.57
2023-03-13T22:08:29.754Z,271.80
2023-03-13T22:10:58.643Z,92.20
2023-03-13T22:13:25.391Z,609.35
2023-03-13T22:15:52.758Z,76.90
2023-03-13T22:18:19.722Z,62.58
2023-03-13T22:20:46.282Z,44.90
2023-03-13T22:23:13.342Z,41.88
2023-03-13T22:25:42.270Z,48.28
2023-03-13T22:30:22.448Z,139.93
2023-03-13T22:32:49.051Z,148.68
2023-03-13T22:35:16.369Z,416.95
2023-03-13T22:37:43.423Z,328.65
2023-03-13T22:40:11.242Z,219.73
2023-03-13T22:42:38.076Z,351.48
2023-03-13T22:45:05.297Z,81.57
2023-03-13T22:47:32.698Z,65.95
2023-03-13T22:49:59.210Z,77.80
2023-03-13T22:52:30.796Z,98.93
2023-03-13T22:54:58.894Z,101.00
2023-03-13T22:57:25.536Z,83.35
2023-03-13T22:59:53.862Z,77.80
2023-03-13T23:02:20.516Z,135.32
2023-03-13T23:04:47.099Z,299.33
2023-03-13T23:07:14.034Z,173.60
2023-03-13T23:09:40.646Z,71.25
2023-03-13T23:12:07.229Z,64.78
2023-03-13T23:14:34.006Z,38.65
2023-03-13T23:17:00.837Z,29.80
2023-03-13T23:19:27.429Z,33.63
2023-03-13T23:21:53.983Z,30.90
2023-03-13T23:24:20.738Z,566.08
2023-03-13T23:26:47.262Z,163.90
2023-03-13T23:29:14.384Z,464.80
2023-03-13T23:31:40.938Z,711.92
2023-03-13T23:34:07.550Z,456.17
2023-03-13T23:36:34.076Z,256.38
2023-03-13T23:39:02.870Z,77.72
2023-03-13T23:41:29.388Z,70.30
2023-03-13T23:43:56.091Z,93.70
2023-03-13T23:46:26.331Z,76.95
2023-03-13T23:48:57.037Z,295.88
2023-03-13T23:51:24.688Z,121.97
2023-03-13T23:53:51.457Z,116.57
2023-03-13T23:56:18.187Z,148.63
2023-03-13T23:58:44.814Z,269.52
